sensor_id;sensor_type;location;lat;lon;timestamp;pressure;altitude;pressure_sealevel;temperature;humidity
14800;BME280;7491;57.750;11.970;2022-11-20T00:00:02;77454.28;;;-142.11;100.00
14800;BME280;7491;57.750;11.970;2022-11-20T00:02:29;77448.16;;;-142.11;100.00
14800;BME280;7491;57.750;11.970;2022-11-20T00:04:55;77450.19;;;-142.11;100.00
14800;BME280;7491;57.750;11.970;2022-11-20T00:07:24;77460.41;;;-142.11;100.00
14800;BME280;7491;57.750;11.970;2022-11-20T00:09:50;77444.09;;;-142.11;100.00
14800;BME280;7491;57.750;11.970;2022-11-20T00:12:17;77448.16;;;-142.11;100.00
14800;BME280;7491;57.750;11.970;2022-11-20T00:14:44;77454.28;;;-142.11;100.00
14800;BME280;7491;57.750;11.970;2022-11-20T00:17:10;77452.25;;;-142.11;100.00
14800;BME280;7491;57.750;11.970;2022-11-20T00:19:37;77460.41;;;-142.11;100.00
14800;BME280;7491;57.750;11.970;2022-11-20T00:22:03;77448.16;;;-142.11;100.00
14800;BME280;7491;57.750;11.970;2022-11-20T00:24:31;77425.72;;;-142.11;100.00
14800;BME280;7491;57.750;11.970;2022-11-20T00:26:58;77444.09;;;-142.11;100.00
14800;BME280;7491;57.750;11.970;2022-11-20T00:29:24;77448.16;;;-142.11;100.00
14800;BME280;7491;57.750;11.970;2022-11-20T00:31:51;77423.69;;;-142.11;100.00
14800;BME280;7491;57.750;11.970;2022-11-20T00:34:17;77427.78;;;-142.11;100.00
14800;BME280;7491;57.750;11.970;2022-11-20T00:36:44;77442.03;;;-142.11;100.00
14800;BME280;7491;57.750;11.970;2022-11-20T00:39:11;77435.94;;;-142.11;100.00
14800;BME280;7491;57.750;11.970;2022-11-20T00:41:38;77431.84;;;-142.11;100.00
14800;BME280;7491;57.750;11.970;2022-11-20T00:44:05;77444.09;;;-142.11;100.00
14800;BME280;7491;57.750;11.970;2022-11-20T00:46:32;77437.97;;;-142.11;100.00
14800;BME280;7491;57.750;11.970;2022-11-20T00:48:59;77448.16;;;-142.11;100.00
14800;BME280;7491;57.750;11.970;2022-11-20T00:51:26;77442.03;;;-142.11;100.00
14800;BME280;7491;57.750;11.970;2022-11-20T00:53:55;77448.16;;;-142.11;100.00
14800;BME280;7491;57.750;11.970;2022-11-20T00:56:22;77454.28;;;-142.11;100.00
14800;BME280;7491;57.750;11.970;2022-11-20T00:58:49;77450.19;;;-142.11;100.00
14800;BME280;7491;57.750;11.970;2022-11-20T01:01:18;77456.31;;;-142.11;100.00
14800;BME280;7491;57.750;11.970;2022-11-20T01:03:46;77458.34;;;-142.11;100.00
14800;BME280;7491;57.750;11.970;2022-11-20T01:06:15;77474.69;;;-142.11;100.00
14800;BME280;7491;57.750;11.970;2022-11-20T01:08:43;77472.63;;;-142.11;100.00
14800;BME280;7491;57.750;11.970;2022-11-20T01:11:11;77468.56;;;-142.11;100.00
14800;BME280;7491;57.750;11.970;2022-11-20T01:13:39;77470.59;;;-142.11;100.00
14800;BME280;7491;57.750;11.970;2022-11-20T01:16:09;77486.91;;;-142.11;100.00
14800;BME280;7491;57.750;11.970;2022-11-20T01:18:37;77484.88;;;-142.11;100.00
14800;BME280;7491;57.750;11.970;2022-11-20T01:21:05;77482.84;;;-142.11;100.00
14800;BME280;7491;57.750;11.970;2022-11-20T01:23:33;77495.06;;;-142.11;100.00
14800;BME280;7491;57.750;11.970;2022-11-20T01:26:01;77495.06;;;-142.11;100.00
14800;BME280;7491;57.750;11.970;2022-11-20T01:28:29;77515.47;;;-142.11;100.00
14800;BME280;7491;57.750;11.970;2022-11-20T01:30:56;77503.22;;;-142.11;100.00
14800;BME280;7491;57.750;11.970;2022-11-20T01:33:24;77517.50;;;-142.11;100.00
14800;BME280;7491;57.750;11.970;2022-11-20T01:35:51;77513.41;;;-142.11;100.00
14800;BME280;7491;57.750;11.970;2022-11-20T01:38:17;77519.53;;;-142.11;100.00
14800;BME280;7491;57.750;11.970;2022-11-20T01:40:45;77529.72;;;-142.11;100.00
14800;BME280;7491;57.750;11.970;2022-11-20T01:43:14;77509.34;;;-142.11;100.00
14800;BME280;7491;57.750;11.970;2022-11-20T01:45:56;77503.22;;;-142.11;100.00
14800;BME280;7491;57.750;11.970;2022-11-20T01:48:29;77497.09;;;-142.11;100.00
14800;BME280;7491;57.750;11.970;2022-11-20T01:50:57;77511.38;;;-142.11;100.00
14800;BME280;7491;57.750;11.970;2022-11-20T01:53:27;77501.19;;;-142.11;100.00
14800;BME280;7491;57.750;11.970;2022-11-20T01:55:57;77488.94;;;-142.11;100.00
14800;BME280;7491;57.750;11.970;2022-11-20T01:58:28;77495.06;;;-142.11;100.00
14800;BME280;7491;57.750;11.970;2022-11-20T02:00:56;77499.16;;;-142.11;100.00
14800;BME280;7491;57.750;11.970;2022-11-20T02:03:23;77480.78;;;-142.11;100.00
14800;BME280;7491;57.750;11.970;2022-11-20T02:05:54;77495.06;;;-142.11;100.00
14800;BME280;7491;57.750;11.970;2022-11-20T02:08:23;77488.94;;;-142.11;100.00
14800;BME280;7491;57.750;11.970;2022-11-20T02:10:50;77497.09;;;-142.11;100.00
14800;BME280;7491;57.750;11.970;2022-11-20T02:13:16;77491.00;;;-142.11;100.00
14800;BME280;7491;57.750;11.970;2022-11-20T02:16:01;77478.75;;;-142.11;100.00
14800;BME280;7491;57.750;11.970;2022-11-20T02:18:28;77482.84;;;-142.11;100.00
14800;BME280;7491;57.750;11.970;2022-11-20T02:21:01;77484.88;;;-142.11;100.00
14800;BME280;7491;57.750;11.970;2022-11-20T02:23:33;77482.84;;;-142.11;100.00
14800;BME280;7491;57.750;11.970;2022-11-20T02:26:05;77493.03;;;-142.11;100.00
14800;BME280;7491;57.750;11.970;2022-11-20T02:28:34;77482.84;;;-142.11;100.00
14800;BME280;7491;57.750;11.970;2022-11-20T02:31:01;77480.78;;;-142.11;100.00
14800;BME280;7491;57.750;11.970;2022-11-20T02:33:27;77484.88;;;-142.11;100.00
14800;BME280;7491;57.750;11.970;2022-11-20T02:35:54;77480.78;;;-142.11;100.00
14800;BME280;7491;57.750;11.970;2022-11-20T02:38:20;77488.94;;;-142.11;100.00
14800;BME280;7491;57.750;11.970;2022-11-20T02:40:47;77482.84;;;-142.11;100.00
14800;BME280;7491;57.750;11.970;2022-11-20T02:43:16;77474.69;;;-142.11;100.00
14800;BME280;7491;57.750;11.970;2022-11-20T02:45:43;77480.78;;;-142.11;100.00
14800;BME280;7491;57.750;11.970;2022-11-20T02:48:09;77476.72;;;-142.11;100.00
14800;BME280;7491;57.750;11.970;2022-11-20T02:50:38;77478.75;;;-142.11;100.00
14800;BME280;7491;57.750;11.970;2022-11-20T02:53:05;77484.88;;;-142.11;100.00
14800;BME280;7491;57.750;11.970;2022-11-20T02:55:32;77482.84;;;-142.11;100.00
14800;BME280;7491;57.750;11.970;2022-11-20T02:57:59;77491.00;;;-142.11;100.00
14800;BME280;7491;57.750;11.970;2022-11-20T03:00:27;77472.63;;;-142.11;100.00
14800;BME280;7491;57.750;11.970;2022-11-20T03:02:53;77476.72;;;-142.11;100.00
14800;BME280;7491;57.750;11.970;2022-11-20T03:05:20;77478.75;;;-142.11;100.00
14800;BME280;7491;57.750;11.970;2022-11-20T03:07:46;77482.84;;;-142.11;100.00
14800;BME280;7491;57.750;11.970;2022-11-20T03:10:13;77482.84;;;-142.11;100.00
14800;BME280;7491;57.750;11.970;2022-11-20T03:12:40;77464.47;;;-142.11;100.00
14800;BME280;7491;57.750;11.970;2022-11-20T03:15:07;77486.91;;;-142.11;100.00
14800;BME280;7491;57.750;11.970;2022-11-20T03:17:35;77474.69;;;-142.11;100.00
14800;BME280;7491;57.750;11.970;2022-11-20T03:20:02;77472.63;;;-142.11;100.00
14800;BME280;7491;57.750;11.970;2022-11-20T03:22:29;77476.72;;;-142.11;100.00
14800;BME280;7491;57.750;11.970;2022-11-20T03:24:56;77470.59;;;-142.11;100.00
14800;BME280;7491;57.750;11.970;2022-11-20T03:27:22;77480.78;;;-142.11;100.00
14800;BME280;7491;57.750;11.970;2022-11-20T03:29:49;77488.94;;;-142.11;100.00
14800;BME280;7491;57.750;11.970;2022-11-20T03:32:16;77488.94;;;-142.11;100.00
14800;BME280;7491;57.750;11.970;2022-11-20T03:34:44;77478.75;;;-142.11;100.00
14800;BME280;7491;57.750;11.970;2022-11-20T03:37:10;77474.69;;;-142.11;100.00
14800;BME280;7491;57.750;11.970;2022-11-20T03:39:37;77482.84;;;-142.11;100.00
14800;BME280;7491;57.750;11.970;2022-11-20T03:42:03;77476.72;;;-142.11;100.00
14800;BME280;7491;57.750;11.970;2022-11-20T03:44:51;77476.72;;;-142.11;100.00
14800;BME280;7491;57.750;11.970;2022-11-20T03:47:17;77478.75;;;-142.11;100.00
14800;BME280;7491;57.750;11.970;2022-11-20T03:49:45;77480.78;;;-142.11;100.00
14800;BME280;7491;57.750;11.970;2022-11-20T03:52:12;77462.44;;;-142.11;100.00
14800;BME280;7491;57.750;11.970;2022-11-20T03:54:38;77478.75;;;-142.11;100.00
14800;BME280;7491;57.750;11.970;2022-11-20T03:57:05;77476.72;;;-142.11;100.00
14800;BME280;7491;57.750;11.970;2022-11-20T03:59:31;77460.41;;;-142.11;100.00
14800;BME280;7491;57.750;11.970;2022-11-20T04:01:58;77470.59;;;-142.11;100.00
14800;BME280;7491;57.750;11.970;2022-11-20T04:04:24;77472.63;;;-142.11;100.00
14800;BME280;7491;57.750;11.970;2022-11-20T04:06:52;77480.78;;;-142.11;100.00
14800;BME280;7491;57.750;11.970;2022-11-20T04:09:19;77484.88;;;-142.11;100.00
14800;BME280;7491;57.750;11.970;2022-11-20T04:11:46;77478.75;;;-142.11;100.00
14800;BME280;7491;57.750;11.970;2022-11-20T04:14:14;77478.75;;;-142.11;100.00
14800;BME280;7491;57.750;11.970;2022-11-20T04:16:41;77472.63;;;-142.11;100.00
14800;BME280;7491;57.750;11.970;2022-11-20T04:19:11;77476.72;;;-142.11;100.00
14800;BME280;7491;57.750;11.970;2022-11-20T04:21:38;77470.59;;;-142.11;100.00
14800;BME280;7491;57.750;11.970;2022-11-20T04:24:06;77462.44;;;-142.11;100.00
14800;BME280;7491;57.750;11.970;2022-11-20T04:26:33;77474.69;;;-142.11;100.00
14800;BME280;7491;57.750;11.970;2022-11-20T04:29:00;77476.72;;;-142.11;100.00
14800;BME280;7491;57.750;11.970;2022-11-20T04:31:29;77480.78;;;-142.11;100.00
14800;BME280;7491;57.750;11.970;2022-11-20T04:33:59;77464.47;;;-142.11;100.00
14800;BME280;7491;57.750;11.970;2022-11-20T04:36:27;77460.41;;;-142.11;100.00
14800;BME280;7491;57.750;11.970;2022-11-20T04:38:55;77470.59;;;-142.11;100.00
14800;BME280;7491;57.750;11.970;2022-11-20T04:41:25;77476.72;;;-142.11;100.00
14800;BME280;7491;57.750;11.970;2022-11-20T04:43:53;77470.59;;;-142.11;100.00
14800;BME280;7491;57.750;11.970;2022-11-20T04:46:25;77470.59;;;-142.11;100.00
14800;BME280;7491;57.750;11.970;2022-11-20T04:48:52;77466.50;;;-142.11;100.00
14800;BME280;7491;57.750;11.970;2022-11-20T04:51:19;77456.31;;;-142.11;100.00
14800;BME280;7491;57.750;11.970;2022-11-20T04:53:45;77462.44;;;-142.11;100.00
14800;BME280;7491;57.750;11.970;2022-11-20T04:56:12;77474.69;;;-142.11;100.00
14800;BME280;7491;57.750;11.970;2022-11-20T04:58:40;77468.56;;;-142.11;100.00
14800;BME280;7491;57.750;11.970;2022-11-20T05:01:10;77460.41;;;-142.11;100.00
14800;BME280;7491;57.750;11.970;2022-11-20T05:03:36;77464.47;;;-142.11;100.00
14800;BME280;7491;57.750;11.970;2022-11-20T05:06:04;77464.47;;;-142.11;100.00
14800;BME280;7491;57.750;11.970;2022-11-20T05:08:31;77458.34;;;-142.11;100.00
14800;BME280;7491;57.750;11.970;2022-11-20T05:11:02;77470.59;;;-142.11;100.00
14800;BME280;7491;57.750;11.970;2022-11-20T05:13:30;77450.19;;;-142.11;100.00
14800;BME280;7491;57.750;11.970;2022-11-20T05:16:02;77460.41;;;-142.11;100.00
14800;BME280;7491;57.750;11.970;2022-11-20T05:18:29;77456.31;;;-142.11;100.00
14800;BME280;7491;57.750;11.970;2022-11-20T05:20:55;77454.28;;;-142.11;100.00
14800;BME280;7491;57.750;11.970;2022-11-20T05:23:22;77458.34;;;-142.11;100.00
14800;BME280;7491;57.750;11.970;2022-11-20T05:25:52;77452.25;;;-142.11;100.00
14800;BME280;7491;57.750;11.970;2022-11-20T05:28:19;77433.88;;;-142.11;100.00
14800;BME280;7491;57.750;11.970;2022-11-20T05:30:45;77440.00;;;-142.11;100.00
14800;BME280;7491;57.750;11.970;2022-11-20T05:33:13;77427.78;;;-142.11;100.00
14800;BME280;7491;57.750;11.970;2022-11-20T05:35:40;77415.53;;;-142.11;100.00
14800;BME280;7491;57.750;11.970;2022-11-20T05:38:07;77413.50;;;-142.11;100.00
14800;BME280;7491;57.750;11.970;2022-11-20T05:40:33;77409.41;;;-142.11;100.00
14800;BME280;7491;57.750;11.970;2022-11-20T05:43:00;77401.25;;;-142.11;100.00
14800;BME280;7491;57.750;11.970;2022-11-20T05:45:27;77411.47;;;-142.11;100.00
14800;BME280;7491;57.750;11.970;2022-11-20T05:47:57;77403.31;;;-142.11;100.00
14800;BME280;7491;57.750;11.970;2022-11-20T05:50:25;77407.38;;;-142.11;100.00
14800;BME280;7491;57.750;11.970;2022-11-20T05:52:52;77397.19;;;-142.11;100.00
14800;BME280;7491;57.750;11.970;2022-11-20T05:55:19;77405.34;;;-142.11;100.00
14800;BME280;7491;57.750;11.970;2022-11-20T05:57:45;77399.22;;;-142.11;100.00
14800;BME280;7491;57.750;11.970;2022-11-20T06:00:13;77395.16;;;-142.11;100.00
14800;BME280;7491;57.750;11.970;2022-11-20T06:02:40;77395.16;;;-142.11;100.00
14800;BME280;7491;57.750;11.970;2022-11-20T06:05:07;77397.19;;;-142.11;100.00
14800;BME280;7491;57.750;11.970;2022-11-20T06:07:35;77405.34;;;-142.11;100.00
14800;BME280;7491;57.750;11.970;2022-11-20T06:10:02;77389.03;;;-142.11;100.00
14800;BME280;7491;57.750;11.970;2022-11-20T06:12:31;77384.94;;;-142.11;100.00
14800;BME280;7491;57.750;11.970;2022-11-20T06:14:57;77387.00;;;-142.11;100.00
14800;BME280;7491;57.750;11.970;2022-11-20T06:17:24;77389.03;;;-142.11;100.00
14800;BME280;7491;57.750;11.970;2022-11-20T06:19:50;77374.75;;;-142.11;100.00
14800;BME280;7491;57.750;11.970;2022-11-20T06:22:17;77370.66;;;-142.11;100.00
14800;BME280;7491;57.750;11.970;2022-11-20T06:24:45;77362.50;;;-142.11;100.00
14800;BME280;7491;57.750;11.970;2022-11-20T06:27:11;77360.47;;;-142.11;100.00
14800;BME280;7491;57.750;11.970;2022-11-20T06:29:38;77366.59;;;-142.11;100.00
14800;BME280;7491;57.750;11.970;2022-11-20T06:32:05;77356.41;;;-142.11;100.00
14800;BME280;7491;57.750;11.970;2022-11-20T06:34:31;77350.28;;;-142.11;100.00
14800;BME280;7491;57.750;11.970;2022-11-20T06:36:58;77348.25;;;-142.11;100.00
14800;BME280;7491;57.750;11.970;2022-11-20T06:39:24;77362.50;;;-142.11;100.00
14800;BME280;7491;57.750;11.970;2022-11-20T06:41:52;77329.88;;;-142.11;100.00
14800;BME280;7491;57.750;11.970;2022-11-20T06:44:19;77340.09;;;-142.11;100.00
14800;BME280;7491;57.750;11.970;2022-11-20T06:46:45;77336.00;;;-142.11;100.00
14800;BME280;7491;57.750;11.970;2022-11-20T06:49:12;77331.94;;;-142.11;100.00
14800;BME280;7491;57.750;11.970;2022-11-20T06:51:38;77313.56;;;-142.11;100.00
14800;BME280;7491;57.750;11.970;2022-11-20T06:54:05;77307.47;;;-142.11;100.00
14800;BME280;7491;57.750;11.970;2022-11-20T06:56:32;77315.63;;;-142.11;100.00
14800;BME280;7491;57.750;11.970;2022-11-20T06:59:03;77313.56;;;-142.11;100.00
14800;BME280;7491;57.750;11.970;2022-11-20T07:01:30;77313.56;;;-142.11;100.00
14800;BME280;7491;57.750;11.970;2022-11-20T07:03:56;77311.53;;;-142.11;100.00
14800;BME280;7491;57.750;11.970;2022-11-20T07:06:23;77321.72;;;-142.11;100.00
14800;BME280;7491;57.750;11.970;2022-11-20T07:08:50;77309.50;;;-142.11;100.00
14800;BME280;7491;57.750;11.970;2022-11-20T07:11:17;77307.47;;;-142.11;100.00
14800;BME280;7491;57.750;11.970;2022-11-20T07:13:44;77291.16;;;-142.11;100.00
14800;BME280;7491;57.750;11.970;2022-11-20T07:16:12;77295.22;;;-142.11;100.00
14800;BME280;7491;57.750;11.970;2022-11-20T07:18:38;77295.22;;;-142.11;100.00
14800;BME280;7491;57.750;11.970;2022-11-20T07:21:07;77283.00;;;-142.11;100.00
14800;BME280;7491;57.750;11.970;2022-11-20T07:23:34;77280.94;;;-142.11;100.00
14800;BME280;7491;57.750;11.970;2022-11-20T07:26:03;77287.06;;;-142.11;100.00
14800;BME280;7491;57.750;11.970;2022-11-20T07:28:29;77276.88;;;-142.11;100.00
14800;BME280;7491;57.750;11.970;2022-11-20T07:30:56;77280.94;;;-142.11;100.00
14800;BME280;7491;57.750;11.970;2022-11-20T07:33:24;77266.66;;;-142.11;100.00
14800;BME280;7491;57.750;11.970;2022-11-20T07:35:50;77283.00;;;-142.11;100.00
14800;BME280;7491;57.750;11.970;2022-11-20T07:38:17;77280.94;;;-142.11;100.00
14800;BME280;7491;57.750;11.970;2022-11-20T07:40:44;77260.56;;;-142.11;100.00
14800;BME280;7491;57.750;11.970;2022-11-20T07:43:10;77262.59;;;-142.11;100.00
14800;BME280;7491;57.750;11.970;2022-11-20T07:45:37;77246.28;;;-142.11;100.00
14800;BME280;7491;57.750;11.970;2022-11-20T07:48:04;77244.25;;;-142.11;100.00
14800;BME280;7491;57.750;11.970;2022-11-20T07:50:32;77252.41;;;-142.11;100.00
14800;BME280;7491;57.750;11.970;2022-11-20T07:53:03;77260.56;;;-142.11;100.00
14800;BME280;7491;57.750;11.970;2022-11-20T07:55:30;77252.41;;;-142.11;100.00
14800;BME280;7491;57.750;11.970;2022-11-20T07:57:57;77254.44;;;-142.11;100.00
14800;BME280;7491;57.750;11.970;2022-11-20T08:00:24;77240.16;;;-142.11;100.00
14800;BME280;7491;57.750;11.970;2022-11-20T08:02:51;77232.00;;;-142.11;100.00
14800;BME280;7491;57.750;11.970;2022-11-20T08:05:17;77236.09;;;-142.11;100.00
14800;BME280;7491;57.750;11.970;2022-11-20T08:07:45;77246.28;;;-142.11;100.00
14800;BME280;7491;57.750;11.970;2022-11-20T08:10:14;77244.25;;;-142.11;100.00
14800;BME280;7491;57.750;11.970;2022-11-20T08:12:45;77221.81;;;-142.11;100.00
14800;BME280;7491;57.750;11.970;2022-11-20T08:15:29;77223.84;;;-142.11;100.00
14800;BME280;7491;57.750;11.970;2022-11-20T08:18:01;77215.69;;;-142.11;100.00
14800;BME280;7491;57.750;11.970;2022-11-20T08:20:28;77217.72;;;-142.11;100.00
14800;BME280;7491;57.750;11.970;2022-11-20T08:22:59;77211.63;;;-142.11;100.00
14800;BME280;7491;57.750;11.970;2022-11-20T08:25:26;77217.72;;;-142.11;100.00
14800;BME280;7491;57.750;11.970;2022-11-20T08:27:57;77197.34;;;-142.11;100.00
14800;BME280;7491;57.750;11.970;2022-11-20T08:30:23;77187.16;;;-142.11;100.00
14800;BME280;7491;57.750;11.970;2022-11-20T08:32:50;77205.50;;;-142.11;100.00
14800;BME280;7491;57.750;11.970;2022-11-20T08:35:17;77189.19;;;-142.11;100.00
14800;BME280;7491;57.750;11.970;2022-11-20T08:37:45;77187.16;;;-142.11;100.00
14800;BME280;7491;57.750;11.970;2022-11-20T08:40:14;77176.94;;;-142.11;100.00
14800;BME280;7491;57.750;11.970;2022-11-20T08:42:46;77172.88;;;-142.11;100.00
14800;BME280;7491;57.750;11.970;2022-11-20T08:45:12;77170.84;;;-142.11;100.00
14800;BME280;7491;57.750;11.970;2022-11-20T08:47:39;77168.78;;;-142.11;100.00
14800;BME280;7491;57.750;11.970;2022-11-20T08:50:07;77174.91;;;-142.11;100.00
14800;BME280;7491;57.750;11.970;2022-11-20T08:52:33;77164.72;;;-142.11;100.00
14800;BME280;7491;57.750;11.970;2022-11-20T08:55:00;77146.38;;;-142.11;100.00
14800;BME280;7491;57.750;11.970;2022-11-20T08:57:31;77132.09;;;-142.11;100.00
14800;BME280;7491;57.750;11.970;2022-11-20T08:59:57;77138.22;;;-142.11;100.00
14800;BME280;7491;57.750;11.970;2022-11-20T09:02:24;77134.13;;;-142.11;100.00
14800;BME280;7491;57.750;11.970;2022-11-20T09:04:51;77136.16;;;-142.11;100.00
14800;BME280;7491;57.750;11.970;2022-11-20T09:07:18;77132.09;;;-142.11;100.00
14800;BME280;7491;57.750;11.970;2022-11-20T09:09:45;77121.91;;;-142.11;100.00
14800;BME280;7491;57.750;11.970;2022-11-20T09:12:13;77136.16;;;-142.11;100.00
14800;BME280;7491;57.750;11.970;2022-11-20T09:14:41;77132.09;;;-142.11;100.00
14800;BME280;7491;57.750;11.970;2022-11-20T09:17:09;77130.06;;;-142.11;100.00
14800;BME280;7491;57.750;11.970;2022-11-20T09:19:38;77130.06;;;-142.11;100.00
14800;BME280;7491;57.750;11.970;2022-11-20T09:22:05;77115.78;;;-142.11;100.00
14800;BME280;7491;57.750;11.970;2022-11-20T09:24:31;77109.66;;;-142.11;100.00
14800;BME280;7491;57.750;11.970;2022-11-20T09:27:01;77103.53;;;-142.11;100.00
14800;BME280;7491;57.750;11.970;2022-11-20T09:29:28;77109.66;;;-142.11;100.00
14800;BME280;7491;57.750;11.970;2022-11-20T09:31:56;77089.28;;;-142.11;100.00
14800;BME280;7491;57.750;11.970;2022-11-20T09:34:22;77083.16;;;-142.11;100.00
14800;BME280;7491;57.750;11.970;2022-11-20T09:36:49;77095.38;;;-142.11;100.00
14800;BME280;7491;57.750;11.970;2022-11-20T09:39:16;77089.28;;;-142.11;100.00
14800;BME280;7491;57.750;11.970;2022-11-20T09:41:55;77087.22;;;-142.11;100.00
14800;BME280;7491;57.750;11.970;2022-11-20T09:44:34;77072.97;;;-142.11;100.00
14800;BME280;7491;57.750;11.970;2022-11-20T09:47:08;77068.88;;;-142.11;100.00
14800;BME280;7491;57.750;11.970;2022-11-20T09:49:54;77048.50;;;-142.11;100.00
14800;BME280;7491;57.750;11.970;2022-11-20T09:52:32;77050.53;;;-142.11;100.00
14800;BME280;7491;57.750;11.970;2022-11-20T09:55:08;77044.41;;;-142.11;100.00
14800;BME280;7491;57.750;11.970;2022-11-20T09:57:38;77044.41;;;-142.11;100.00
14800;BME280;7491;57.750;11.970;2022-11-20T10:00:11;77050.53;;;-142.11;100.00
14800;BME280;7491;57.750;11.970;2022-11-20T10:02:44;77058.69;;;-142.11;100.00
14800;BME280;7491;57.750;11.970;2022-11-20T10:05:18;77036.25;;;-142.11;100.00
14800;BME280;7491;57.750;11.970;2022-11-20T10:07:51;77048.50;;;-142.11;100.00
14800;BME280;7491;57.750;11.970;2022-11-20T10:10:29;77032.19;;;-142.11;100.00
14800;BME280;7491;57.750;11.970;2022-11-20T10:13:09;77044.41;;;-142.11;100.00
14800;BME280;7491;57.750;11.970;2022-11-20T10:15:53;77028.09;;;-142.11;100.00
14800;BME280;7491;57.750;11.970;2022-11-20T10:18:35;77017.91;;;-142.11;100.00
14800;BME280;7491;57.750;11.970;2022-11-20T10:21:09;77021.97;;;-142.11;100.00
14800;BME280;7491;57.750;11.970;2022-11-20T10:26:38;77019.94;;;-142.11;100.00
14800;BME280;7491;57.750;11.970;2022-11-20T10:29:11;77011.78;;;-142.11;100.00
14800;BME280;7491;57.750;11.970;2022-11-20T10:31:40;77024.03;;;-142.11;100.00
14800;BME280;7491;57.750;11.970;2022-11-20T10:34:17;77021.97;;;-142.11;100.00
14800;BME280;7491;57.750;11.970;2022-11-20T10:36:52;77024.03;;;-142.11;100.00
14800;BME280;7491;57.750;11.970;2022-11-20T10:39:28;76999.56;;;-142.11;100.00
14800;BME280;7491;57.750;11.970;2022-11-20T10:41:56;76999.56;;;-142.11;100.00
14800;BME280;7491;57.750;11.970;2022-11-20T10:44:27;76983.25;;;-142.11;100.00
14800;BME280;7491;57.750;11.970;2022-11-20T10:47:14;76981.22;;;-142.11;100.00
14800;BME280;7491;57.750;11.970;2022-11-20T10:49:43;76964.88;;;-142.11;100.00
14800;BME280;7491;57.750;11.970;2022-11-20T10:52:19;76975.09;;;-142.11;100.00
14800;BME280;7491;57.750;11.970;2022-11-20T10:54:55;76954.69;;;-142.11;100.00
14800;BME280;7491;57.750;11.970;2022-11-20T10:57:40;76940.44;;;-142.11;100.00
14800;BME280;7491;57.750;11.970;2022-11-20T11:00:12;76928.19;;;-142.11;100.00
14800;BME280;7491;57.750;11.970;2022-11-20T11:02:46;76926.16;;;-142.11;100.00
14800;BME280;7491;57.750;11.970;2022-11-20T11:05:27;76909.84;;;-142.11;100.00
14800;BME280;7491;57.750;11.970;2022-11-20T11:08:07;76905.75;;;-142.11;100.00
14800;BME280;7491;57.750;11.970;2022-11-20T11:10:42;76936.34;;;-142.11;100.00
14800;BME280;7491;57.750;11.970;2022-11-20T11:13:25;76915.97;;;-142.11;100.00
14800;BME280;7491;57.750;11.970;2022-11-20T11:15:52;76901.69;;;-142.11;100.00
14800;BME280;7491;57.750;11.970;2022-11-20T11:18:24;76899.66;;;-142.11;100.00
14800;BME280;7491;57.750;11.970;2022-11-20T11:20:53;76903.72;;;-142.11;100.00
14800;BME280;7491;57.750;11.970;2022-11-20T11:23:32;76879.25;;;-142.11;100.00
14800;BME280;7491;57.750;11.970;2022-11-20T11:26:02;76887.41;;;-142.11;100.00
14800;BME280;7491;57.750;11.970;2022-11-20T11:28:29;76877.22;;;-142.11;100.00
14800;BME280;7491;57.750;11.970;2022-11-20T11:30:57;76860.91;;;-142.11;100.00
14800;BME280;7491;57.750;11.970;2022-11-20T11:33:25;76889.44;;;-142.11;100.00
14800;BME280;7491;57.750;11.970;2022-11-20T11:35:55;76883.34;;;-142.11;100.00
14800;BME280;7491;57.750;11.970;2022-11-20T11:38:30;76875.19;;;-142.11;100.00
14800;BME280;7491;57.750;11.970;2022-11-20T11:40:59;76871.09;;;-142.11;100.00
14800;BME280;7491;57.750;11.970;2022-11-20T11:43:29;76860.91;;;-142.11;100.00
14800;BME280;7491;57.750;11.970;2022-11-20T11:46:24;76873.13;;;-142.11;100.00
14800;BME280;7491;57.750;11.970;2022-11-20T11:48:56;76877.22;;;-142.11;100.00
14800;BME280;7491;57.750;11.970;2022-11-20T11:51:56;76879.25;;;-142.11;100.00
14800;BME280;7491;57.750;11.970;2022-11-20T11:54:29;76879.25;;;-142.11;100.00
14800;BME280;7491;57.750;11.970;2022-11-20T11:57:05;76858.88;;;-142.11;100.00
14800;BME280;7491;57.750;11.970;2022-11-20T11:59:43;76877.22;;;-142.11;100.00
14800;BME280;7491;57.750;11.970;2022-11-20T12:02:18;76860.91;;;-142.11;100.00
14800;BME280;7491;57.750;11.970;2022-11-20T12:04:56;76869.06;;;-142.11;100.00
14800;BME280;7491;57.750;11.970;2022-11-20T12:07:37;76891.50;;;-142.11;100.00
14800;BME280;7491;57.750;11.970;2022-11-20T12:10:08;76881.28;;;-142.11;100.00
14800;BME280;7491;57.750;11.970;2022-11-20T12:12:44;76877.22;;;-142.11;100.00
14800;BME280;7491;57.750;11.970;2022-11-20T12:15:16;76891.50;;;-142.11;100.00
14800;BME280;7491;57.750;11.970;2022-11-20T12:17:46;76879.25;;;-142.11;100.00
14800;BME280;7491;57.750;11.970;2022-11-20T12:20:13;76873.13;;;-142.11;100.00
14800;BME280;7491;57.750;11.970;2022-11-20T12:22:55;76877.22;;;-142.11;100.00
14800;BME280;7491;57.750;11.970;2022-11-20T12:25:28;76858.88;;;-142.11;100.00
14800;BME280;7491;57.750;11.970;2022-11-20T12:34:11;76854.78;;;-142.11;100.00
14800;BME280;7491;57.750;11.970;2022-11-20T12:36:49;76852.75;;;-142.11;100.00
14800;BME280;7491;57.750;11.970;2022-11-20T12:39:34;76840.53;;;-142.11;100.00
14800;BME280;7491;57.750;11.970;2022-11-20T12:45:24;76844.59;;;-142.11;100.00
14800;BME280;7491;57.750;11.970;2022-11-20T12:48:13;76840.53;;;-142.11;100.00
14800;BME280;7491;57.750;11.970;2022-11-20T12:50:49;76842.56;;;-142.11;100.00
14800;BME280;7491;57.750;11.970;2022-11-20T12:53:26;76832.34;;;-142.11;100.00